Time;durP1;ratioP1;P1;durP2;ratioP2;P2;SDS_P1;SDS_P2;PMS_P1;PMS_P2;Temp;Humidity;BMP_temperature;BMP_pressure;BME280_temperature;BME280_humidity;BME280_pressure;Samples;Min_cycle;Max_cycle;Signal;HPM_P1;HPM_P2
2023/05/31 00:00:21;;;;;;;10.85;3.55;;;;;;;-144.73;96.41;54292.75;5120130;27;20112;-71
2023/05/31 00:02:47;;;;;;;15.35;3.85;;;;;;;-144.73;96.92;54251.72;5103942;28;20502;-71
2023/05/31 00:05:12;;;;;;;9.70;3.65;;;;;;;-144.73;95.47;54286.59;5095267;28;20051;-71
2023/05/31 00:07:37;;;;;;;17.02;4.75;;;;;;;-144.73;96.00;54292.75;5112242;28;20028;-69
2023/05/31 00:10:03;;;;;;;14.00;5.13;;;;;;;-144.73;96.11;54276.34;5095124;28;20098;-70
2023/05/31 00:12:28;;;;;;;14.25;4.75;;;;;;;-144.73;98.26;54251.72;5112748;27;20115;-70
2023/05/31 00:14:53;;;;;;;10.70;4.10;;;;;;;-144.73;97.03;54247.59;5113174;27;20038;-70
2023/05/31 00:17:19;;;;;;;11.75;4.13;;;;;;;-144.73;98.01;54227.09;5102553;28;20059;-70
2023/05/31 00:19:44;;;;;;;11.60;4.15;;;;;;;-144.73;97.52;54296.88;5112923;27;20034;-70
2023/05/31 00:22:10;;;;;;;9.25;3.83;;;;;;;-144.73;96.45;54251.72;5114693;27;20042;-70
2023/05/31 00:24:36;;;;;;;10.85;4.05;;;;;;;-144.73;96.71;54276.34;5095760;28;20148;-70
2023/05/31 00:27:01;;;;;;;15.82;4.65;;;;;;;-144.73;100.00;54288.66;5103782;27;20031;-70
2023/05/31 00:29:27;;;;;;;11.32;3.53;;;;;;;-144.73;100.00;54296.88;5114461;27;20028;-71
2023/05/31 00:31:52;;;;;;;10.65;3.88;;;;;;;-144.73;100.00;54288.66;5125973;27;20030;-71
2023/05/31 00:34:17;;;;;;;14.20;3.97;;;;;;;-144.73;100.00;54253.75;5102839;27;20042;-71
2023/05/31 00:36:43;;;;;;;9.13;3.60;;;;;;;-144.73;100.00;54276.34;5096773;28;20031;-70
2023/05/31 00:39:08;;;;;;;22.50;4.85;;;;;;;-144.73;100.00;54259.91;5094781;28;20031;-71
2023/05/31 00:41:33;;;;;;;17.58;4.63;;;;;;;-144.73;99.40;54288.66;5112615;28;20065;-69
2023/05/31 00:43:59;;;;;;;17.83;4.25;;;;;;;-144.73;97.82;54288.66;5073439;28;20062;-71
2023/05/31 00:46:39;;;;;;;11.93;4.10;;;;;;;-144.73;97.72;54255.81;5083701;28;20114;-71
2023/05/31 00:49:06;;;;;;;7.32;3.58;;;;;;;-144.73;99.62;54292.75;5081281;28;20498;-70
2023/05/31 00:51:32;;;;;;;9.27;3.92;;;;;;;-144.73;100.00;54255.81;5096358;27;20028;-71
2023/05/31 00:53:59;;;;;;;9.23;4.00;;;;;;;-144.73;100.00;54298.91;5123514;27;20108;-71
2023/05/31 00:56:25;;;;;;;12.38;4.38;;;;;;;-144.73;100.00;54284.56;5113606;27;20092;-74
2023/05/31 00:58:52;;;;;;;14.52;3.92;;;;;;;-144.73;100.00;54259.91;5112843;27;20494;-74
2023/05/31 01:01:19;;;;;;;9.23;4.38;;;;;;;-144.73;100.00;54276.34;5107309;27;20019;-74
2023/05/31 01:03:45;;;;;;;10.85;4.57;;;;;;;-144.73;100.00;54259.91;5108717;28;20039;-75
2023/05/31 01:06:11;;;;;;;10.48;4.25;;;;;;;-144.73;100.00;54284.56;5107469;28;20035;-74
2023/05/31 01:08:37;;;;;;;8.63;4.00;;;;;;;-144.73;100.00;54276.34;5106308;28;20039;-74
2023/05/31 01:11:55;;;;;;;12.30;4.43;;;;;;;-144.73;100.00;54280.44;5127990;27;20132;-74
2023/05/31 01:14:39;;;;;;;19.65;4.97;;;;;;;-144.73;100.00;54288.66;5049260;27;20103;-74
2023/05/31 01:17:14;;;;;;;14.27;4.65;;;;;;;-144.73;100.00;54300.97;5099078;28;20031;-74
2023/05/31 01:19:47;;;;;;;11.77;4.47;;;;;;;-144.73;100.00;54296.88;5110208;27;20084;-75
2023/05/31 01:22:32;;;;;;;12.98;4.53;;;;;;;-144.73;100.00;54321.50;5107282;28;20439;-74
2023/05/31 01:25:21;;;;;;;10.68;4.35;;;;;;;-144.73;100.00;54264.03;5109889;27;20114;-74
2023/05/31 01:27:47;;;;;;;12.73;4.53;;;;;;;-144.73;100.00;54317.38;5121562;27;20039;-75
2023/05/31 01:30:14;;;;;;;11.75;4.00;;;;;;;-144.73;100.00;54292.75;5117343;27;20015;-74
2023/05/31 01:32:40;;;;;;;11.68;4.97;;;;;;;-144.73;100.00;54259.91;5111166;27;20033;-74
2023/05/31 01:35:06;;;;;;;15.65;5.68;;;;;;;-144.73;100.00;54247.59;5101369;28;20035;-74
2023/05/31 01:37:31;;;;;;;13.77;4.45;;;;;;;-144.73;100.00;54300.97;5108745;28;20039;-74
2023/05/31 01:39:57;;;;;;;17.58;4.95;;;;;;;-144.73;100.00;54268.13;5112760;27;20051;-73
2023/05/31 01:42:23;;;;;;;12.98;4.70;;;;;;;-144.73;100.00;54284.56;5112355;27;20027;-74
2023/05/31 01:44:50;;;;;;;34.03;5.10;;;;;;;-144.73;100.00;54342.03;5103214;28;20029;-74
2023/05/31 01:47:17;;;;;;;14.50;4.72;;;;;;;-144.73;100.00;54259.91;5113393;27;20034;-74
2023/05/31 01:49:43;;;;;;;15.88;4.72;;;;;;;-144.73;100.00;54300.97;5112933;27;20034;-74
2023/05/31 01:52:12;;;;;;;20.17;5.68;;;;;;;-144.73;100.00;54313.28;5104023;28;20024;-74
2023/05/31 01:54:37;;;;;;;12.18;4.63;;;;;;;-144.73;100.00;54309.19;5108064;27;20488;-74
2023/05/31 01:57:05;;;;;;;15.00;4.97;;;;;;;-144.73;100.00;54251.72;5117894;27;20115;-74
2023/05/31 01:59:33;;;;;;;20.95;6.07;;;;;;;-144.73;100.00;54268.13;5109064;27;20590;-73
2023/05/31 02:01:59;;;;;;;20.85;5.07;;;;;;;-144.73;100.00;54276.34;5101184;28;20031;-73
2023/05/31 02:04:24;;;;;;;18.83;6.05;;;;;;;-144.73;100.00;54294.81;5093304;28;20475;-72
2023/05/31 02:06:51;;;;;;;16.05;5.15;;;;;;;-144.73;100.00;54276.34;5109620;28;20034;-73
2023/05/31 02:09:19;;;;;;;18.90;5.53;;;;;;;-144.73;100.00;54284.56;5092622;28;20493;-72
2023/05/31 02:11:44;;;;;;;19.40;5.53;;;;;;;-144.73;100.00;54311.22;5110887;28;20040;-73
2023/05/31 02:14:10;;;;;;;32.30;5.85;;;;;;;-144.73;100.00;54325.59;5110955;28;20555;-74
2023/05/31 02:16:35;;;;;;;24.75;6.07;;;;;;;-144.73;100.00;54288.66;5109168;28;20026;-73
2023/05/31 02:19:01;;;;;;;19.00;6.30;;;;;;;-144.73;100.00;54247.59;5091657;28;20029;-74
2023/05/31 02:21:27;;;;;;;14.05;6.45;;;;;;;-144.73;100.00;54261.97;5098656;28;20015;-73
2023/05/31 02:23:52;;;;;;;14.95;6.35;;;;;;;-144.73;100.00;54292.75;5102144;28;20076;-73
2023/05/31 02:26:19;;;;;;;20.05;6.00;;;;;;;-144.73;100.00;54276.34;5119862;27;20034;-74
2023/05/31 02:28:44;;;;;;;18.05;6.40;;;;;;;-144.73;100.00;54251.72;5102414;28;20039;-74
2023/05/31 02:31:10;;;;;;;13.27;5.93;;;;;;;-144.73;100.00;54284.56;5114878;28;20056;-74
2023/05/31 02:33:35;;;;;;;15.30;6.85;;;;;;;-144.73;100.00;54249.66;5108887;28;20027;-74
2023/05/31 02:36:01;;;;;;;18.52;7.55;;;;;;;-144.73;100.00;54280.44;5126391;28;20031;-74
2023/05/31 02:38:27;;;;;;;25.67;10.60;;;;;;;-144.73;100.00;54259.91;5110639;28;20031;-73
2023/05/31 02:40:52;;;;;;;24.00;11.05;;;;;;;-144.73;100.00;54255.81;5109692;28;20007;-74
2023/05/31 02:43:17;;;;;;;18.73;7.25;;;;;;;-144.73;100.00;54325.59;5108639;28;20030;-73
2023/05/31 02:45:43;;;;;;;28.92;7.70;;;;;;;-144.73;100.00;54292.75;5105820;28;20023;-74
2023/05/31 02:48:08;;;;;;;15.50;7.38;;;;;;;-144.73;100.00;54292.75;5105384;28;20024;-73
2023/05/31 02:50:33;;;;;;;20.10;7.05;;;;;;;-144.73;100.00;54288.66;5108370;28;20030;-73
2023/05/31 02:53:04;;;;;;;17.60;7.30;;;;;;;-144.73;100.00;54255.81;5104117;28;20525;-74
2023/05/31 02:55:30;;;;;;;15.40;6.22;;;;;;;-144.73;100.00;54296.88;5109245;28;20110;-74
2023/05/31 02:57:55;;;;;;;18.63;6.68;;;;;;;-144.73;100.00;54288.66;5103916;28;20051;-73
2023/05/31 03:00:21;;;;;;;19.80;6.82;;;;;;;-144.73;100.00;54300.97;5112089;28;20470;-73
2023/05/31 03:02:46;;;;;;;12.05;5.18;;;;;;;-144.73;100.00;54305.06;5101284;28;20028;-73
2023/05/31 03:05:11;;;;;;;18.42;6.15;;;;;;;-144.73;100.00;54300.97;5121212;27;20015;-74
2023/05/31 03:07:37;;;;;;;18.23;6.88;;;;;;;-144.73;100.00;54317.38;5110013;28;20027;-73
2023/05/31 03:10:04;;;;;;;22.58;7.00;;;;;;;-144.73;100.00;54276.34;5107367;28;20023;-73
2023/05/31 03:12:30;;;;;;;20.10;7.85;;;;;;;-144.73;100.00;54278.41;5111954;28;20101;-74
2023/05/31 03:14:56;;;;;;;15.52;5.95;;;;;;;-144.73;100.00;54303.03;5109375;28;20027;-74
2023/05/31 03:17:21;;;;;;;16.55;5.88;;;;;;;-144.73;100.00;54288.66;5091137;28;20032;-73
2023/05/31 03:19:47;;;;;;;19.63;6.18;;;;;;;-144.73;100.00;54266.06;5091380;28;20500;-73
2023/05/31 03:22:12;;;;;;;15.73;6.43;;;;;;;-144.73;100.00;54292.75;5104228;28;20168;-73
2023/05/31 03:24:38;;;;;;;20.20;7.07;;;;;;;-144.73;100.00;54259.91;5107146;28;20022;-73
2023/05/31 03:27:03;;;;;;;18.58;6.57;;;;;;;-144.73;100.00;54251.72;5093892;28;20032;-73
2023/05/31 03:29:29;;;;;;;18.70;7.15;;;;;;;-144.73;100.00;54276.34;5106223;28;20038;-74
2023/05/31 03:31:54;;;;;;;17.17;6.28;;;;;;;-144.73;100.00;54268.13;5095170;28;20511;-73
2023/05/31 03:34:21;;;;;;;15.48;6.10;;;;;;;-144.73;100.00;54292.75;5104821;28;20039;-73
2023/05/31 03:36:46;;;;;;;16.92;7.20;;;;;;;-144.73;100.00;54292.75;5106345;28;20482;-73
2023/05/31 03:39:12;;;;;;;19.33;5.40;;;;;;;-144.73;100.00;54259.91;5111264;28;20027;-73
2023/05/31 03:41:37;;;;;;;13.30;6.03;;;;;;;-144.73;100.00;54329.72;5121842;27;20023;-73
2023/05/31 03:44:03;;;;;;;16.27;5.90;;;;;;;-144.73;100.00;54276.34;5114160;27;20041;-73
2023/05/31 03:46:28;;;;;;;12.20;6.00;;;;;;;-144.73;100.00;54303.03;5107542;27;20027;-74
2023/05/31 03:48:53;;;;;;;17.98;6.85;;;;;;;-144.73;100.00;54292.75;5117085;27;20035;-73
2023/05/31 03:51:19;;;;;;;13.57;5.90;;;;;;;-144.73;100.00;54305.06;5107848;27;20059;-74
2023/05/31 03:53:44;;;;;;;14.30;6.35;;;;;;;-144.73;100.00;54255.81;5106006;27;20032;-74
2023/05/31 03:56:10;;;;;;;18.92;6.65;;;;;;;-144.73;100.00;54284.56;5106215;27;20037;-74
2023/05/31 03:58:35;;;;;;;16.08;7.22;;;;;;;-144.73;100.00;54300.97;5102530;28;20046;-74
2023/05/31 04:01:02;;;;;;;16.90;7.70;;;;;;;-144.73;100.00;54239.41;5119793;27;20026;-74
2023/05/31 04:03:27;;;;;;;15.43;7.32;;;;;;;-144.73;100.00;54325.59;5113024;27;20123;-74
2023/05/31 04:05:53;;;;;;;15.35;7.10;;;;;;;-144.73;100.00;54268.13;5104446;27;20106;-74
2023/05/31 04:08:18;;;;;;;15.65;6.35;;;;;;;-144.73;100.00;54253.75;5110657;28;20502;-73
2023/05/31 04:10:44;;;;;;;17.25;6.95;;;;;;;-144.73;100.00;54296.88;5122318;27;20059;-74
2023/05/31 04:13:09;;;;;;;16.52;7.07;;;;;;;-144.73;100.00;54296.88;5109424;28;20073;-74
2023/05/31 04:15:35;;;;;;;19.83;7.47;;;;;;;-144.73;100.00;54313.28;5108898;27;20023;-74
2023/05/31 04:18:01;;;;;;;20.40;7.28;;;;;;;-144.73;100.00;54321.50;5110424;28;20040;-74
2023/05/31 04:20:27;;;;;;;17.75;7.03;;;;;;;-144.73;100.00;54317.38;5105918;28;20016;-74
2023/05/31 04:22:53;;;;;;;21.02;7.55;;;;;;;-144.73;100.00;54284.56;5122454;27;20038;-75
2023/05/31 04:25:21;;;;;;;16.85;7.97;;;;;;;-144.73;100.00;54280.44;5124322;27;20102;-75
2023/05/31 04:27:47;;;;;;;18.73;7.05;;;;;;;-144.73;100.00;54264.03;5111419;27;20027;-74
2023/05/31 04:30:13;;;;;;;21.10;7.43;;;;;;;-144.73;100.00;54305.06;5126546;27;20050;-74
2023/05/31 04:32:39;;;;;;;17.17;6.72;;;;;;;-144.73;100.00;54276.34;5087374;28;20051;-74
2023/05/31 04:35:05;;;;;;;17.88;6.85;;;;;;;-144.73;100.00;54325.59;5074519;28;20054;-74
2023/05/31 04:37:32;;;;;;;17.50;6.78;;;;;;;-144.73;100.00;54296.88;5066706;28;20119;-74
2023/05/31 04:39:58;;;;;;;14.90;6.65;;;;;;;-144.73;100.00;54288.66;5073770;28;20012;-74
2023/05/31 04:42:27;;;;;;;15.35;7.30;;;;;;;-144.73;100.00;54317.38;5106055;28;20047;-73
2023/05/31 04:44:58;;;;;;;18.02;6.55;;;;;;;-144.73;100.00;54280.44;5082713;28;20027;-74
2023/05/31 04:47:27;;;;;;;16.77;6.50;;;;;;;-144.73;100.00;54292.75;5105892;28;20023;-74
2023/05/31 04:49:54;;;;;;;16.52;7.70;;;;;;;-144.73;100.00;54321.50;5073282;28;20024;-74
2023/05/31 04:52:20;;;;;;;20.27;7.03;;;;;;;-144.73;100.00;54296.88;5092512;28;20111;-74
2023/05/31 04:54:45;;;;;;;23.35;7.65;;;;;;;-144.73;100.00;54296.88;5099540;28;20111;-74
2023/05/31 04:57:10;;;;;;;19.23;7.80;;;;;;;-144.73;100.00;54276.34;5092362;28;20085;-74
2023/05/31 04:59:36;;;;;;;17.08;6.97;;;;;;;-144.73;100.00;54276.34;5076511;28;20028;-74
2023/05/31 05:02:02;;;;;;;24.13;6.95;;;;;;;-144.73;100.00;54317.38;5085509;28;20059;-70
2023/05/31 05:04:27;;;;;;;19.92;7.07;;;;;;;-144.73;100.00;54268.13;5078095;28;20053;-70
2023/05/31 05:06:52;;;;;;;16.17;6.78;;;;;;;-144.73;100.00;54298.91;5091791;28;20040;-70
2023/05/31 05:09:18;;;;;;;20.33;7.25;;;;;;;-144.73;100.00;54321.50;5080459;28;20066;-71
2023/05/31 05:11:43;;;;;;;16.55;7.15;;;;;;;-144.73;100.00;54305.06;5076453;28;20030;-70
2023/05/31 05:14:09;;;;;;;17.48;7.57;;;;;;;-144.73;100.00;54317.38;5094005;28;20474;-70
2023/05/31 05:16:34;;;;;;;18.95;7.57;;;;;;;-144.73;100.00;54300.97;5111903;28;20050;-71
2023/05/31 05:18:59;;;;;;;28.23;8.68;;;;;;;-144.73;100.00;54317.38;5091535;28;20509;-70
2023/05/31 05:21:25;;;;;;;18.20;7.55;;;;;;;-144.73;100.00;54309.19;5091174;28;20024;-70
2023/05/31 05:23:50;;;;;;;20.17;7.63;;;;;;;-144.73;100.00;54288.66;5090816;28;20115;-71
2023/05/31 05:26:15;;;;;;;13.85;7.00;;;;;;;-144.73;100.00;54288.66;5081071;28;20106;-71
2023/05/31 05:28:41;;;;;;;16.35;7.13;;;;;;;-144.73;100.00;54305.06;5088895;28;20034;-71
2023/05/31 05:31:06;;;;;;;16.45;6.47;;;;;;;-144.73;100.00;54305.06;5090844;28;20031;-71
2023/05/31 05:33:31;;;;;;;17.77;6.72;;;;;;;-144.73;100.00;54300.97;5090662;28;20113;-72
2023/05/31 05:35:57;;;;;;;17.48;7.00;;;;;;;-144.73;100.00;54309.19;5073532;28;20031;-71
2023/05/31 05:38:22;;;;;;;17.38;6.45;;;;;;;-144.73;100.00;54313.28;5072840;28;20032;-71
2023/05/31 05:40:47;;;;;;;12.20;5.82;;;;;;;-144.73;100.00;54276.34;5072964;28;20031;-71
2023/05/31 05:43:13;;;;;;;19.58;6.32;;;;;;;-144.73;100.00;54294.81;5072675;28;20046;-71
2023/05/31 05:45:39;;;;;;;17.88;6.22;;;;;;;-144.73;100.00;54300.97;5073245;28;20036;-71
2023/05/31 05:48:04;;;;;;;14.25;5.53;;;;;;;-144.73;100.00;54288.66;5090142;28;20065;-71
2023/05/31 05:50:30;;;;;;;18.77;6.35;;;;;;;-144.73;100.00;54292.75;5073176;28;20526;-70
2023/05/31 05:52:55;;;;;;;14.93;6.03;;;;;;;-144.73;100.00;54288.66;5090660;28;20040;-70
2023/05/31 05:55:21;;;;;;;18.45;6.40;;;;;;;-144.73;100.00;54276.34;5073136;28;20060;-71
2023/05/31 05:57:46;;;;;;;16.60;6.55;;;;;;;-144.73;100.00;54296.88;5072337;28;20089;-71
2023/05/31 06:00:13;;;;;;;17.92;6.75;;;;;;;-144.73;100.00;54276.34;5090503;28;20028;-71
2023/05/31 06:02:40;;;;;;;17.38;6.82;;;;;;;-144.73;100.00;54292.75;5072481;28;20024;-71
2023/05/31 06:05:06;;;;;;;13.18;5.88;;;;;;;-144.73;100.00;54296.88;5091179;28;20046;-69
2023/05/31 06:07:32;;;;;;;9.82;5.40;;;;;;;-144.73;100.00;54288.66;5080791;28;20036;-70
2023/05/31 06:09:57;;;;;;;16.45;5.78;;;;;;;-144.73;100.00;54329.72;5110932;28;20127;-71
2023/05/31 06:12:22;;;;;;;13.65;5.35;;;;;;;-144.73;100.00;54264.03;5110326;28;20039;-72
2023/05/31 06:14:48;;;;;;;15.52;4.88;;;;;;;-144.73;100.00;54309.19;5110906;28;20031;-71
2023/05/31 06:17:13;;;;;;;16.98;5.80;;;;;;;-144.73;100.00;54325.59;5110656;28;20544;-71
2023/05/31 06:19:39;;;;;;;12.27;5.55;;;;;;;-144.73;100.00;54251.72;5092836;28;20023;-72
2023/05/31 06:22:04;;;;;;;13.75;5.75;;;;;;;-144.73;100.00;54296.88;5091890;28;20035;-72
2023/05/31 06:24:29;;;;;;;13.23;5.60;;;;;;;-144.73;100.00;54321.50;5085267;28;20027;-71
2023/05/31 06:26:55;;;;;;;17.67;5.88;;;;;;;-144.73;100.00;54300.97;5089958;28;20028;-71
2023/05/31 06:29:20;;;;;;;12.77;5.82;;;;;;;-144.73;98.96;54282.50;5072359;28;20032;-71
2023/05/31 06:31:46;;;;;;;12.07;5.00;;;;;;;-144.73;98.49;54288.66;5072045;28;20028;-72
2023/05/31 06:34:11;;;;;;;16.88;5.80;;;;;;;-144.73;95.98;54280.44;5072577;28;20016;-71
2023/05/31 06:36:37;;;;;;;10.02;4.28;;;;;;;-144.73;90.35;54311.22;5071857;28;20081;-72
2023/05/31 06:39:02;;;;;;;14.68;4.47;;;;;;;-144.73;89.56;54300.97;5072643;28;20059;-72
2023/05/31 06:41:29;;;;;;;15.13;4.40;;;;;;;-144.73;89.65;54268.13;5071827;28;20016;-71
2023/05/31 06:43:54;;;;;;;18.63;4.40;;;;;;;-144.73;88.71;54276.34;5072185;28;20080;-71
2023/05/31 06:46:20;;;;;;;13.55;3.65;;;;;;;-144.73;84.74;54276.34;5090694;28;20028;-71
2023/05/31 06:48:45;;;;;;;19.25;4.05;;;;;;;-144.73;84.70;54268.13;5072453;28;20024;-72
2023/05/31 06:51:10;;;;;;;19.92;5.20;;;;;;;-144.73;82.34;54251.72;5090781;28;20024;-72
2023/05/31 06:53:36;;;;;;;12.75;4.20;;;;;;;-144.73;82.21;54280.44;5080389;28;20031;-71
2023/05/31 06:56:02;;;;;;;14.38;4.50;;;;;;;-144.73;83.12;54251.72;5092877;28;20565;-72
2023/05/31 06:58:31;;;;;;;27.58;4.75;;;;;;;-144.73;82.37;54276.34;5109656;28;20397;-71
2023/05/31 07:00:57;;;;;;;22.52;4.25;;;;;;;-144.73;82.51;54268.13;5093088;28;20076;-72
2023/05/31 07:03:22;;;;;;;22.63;6.47;;;;;;;-144.73;78.19;54276.34;5092437;28;20031;-71
2023/05/31 07:05:47;;;;;;;14.05;3.80;;;;;;;-144.73;73.54;54342.03;5092984;28;20019;-71
2023/05/31 07:08:15;;;;;;;14.80;3.58;;;;;;;-144.73;72.55;54276.34;5110647;28;20031;-70
2023/05/31 07:10:41;;;;;;;14.02;3.80;;;;;;;-144.73;71.62;54276.34;5092556;28;20036;-70
2023/05/31 07:13:07;;;;;;;11.57;4.10;;;;;;;-144.73;73.44;54284.56;5112881;28;20077;-71
2023/05/31 07:15:33;;;;;;;20.63;3.65;;;;;;;-144.73;70.73;54305.06;5114837;28;20026;-71
2023/05/31 07:17:58;;;;;;;17.17;4.00;;;;;;;-144.73;70.43;54280.44;5095259;28;20038;-71
2023/05/31 07:20:24;;;;;;;11.38;3.15;;;;;;;-144.73;70.12;54288.66;5095891;28;20024;-70
2023/05/31 07:22:50;;;;;;;11.52;3.13;;;;;;;-144.73;69.15;54288.66;5085856;28;20161;-71
2023/05/31 07:25:16;;;;;;;10.75;2.70;;;;;;;-144.73;67.30;54300.97;5071368;28;20020;-69
2023/05/31 07:27:41;;;;;;;14.95;3.58;;;;;;;-144.73;67.84;54222.97;5075801;28;20024;-70
2023/05/31 07:30:07;;;;;;;14.93;3.08;;;;;;;-144.73;65.58;54229.13;5088361;28;20020;-69
2023/05/31 07:32:33;;;;;;;15.88;3.38;;;;;;;-144.73;66.25;54255.81;5087361;28;20032;-71
2023/05/31 07:34:58;;;;;;;14.30;3.92;;;;;;;-144.73;64.56;54231.19;5086716;28;20123;-71
2023/05/31 07:37:24;;;;;;;10.93;3.55;;;;;;;-144.73;64.56;54247.59;5097764;27;20031;-71
2023/05/31 07:39:49;;;;;;;12.23;3.35;;;;;;;-144.73;60.38;54251.72;5128678;27;20027;-71
2023/05/31 07:42:14;;;;;;;12.70;3.63;;;;;;;-144.73;57.95;54251.72;5109896;27;20095;-70
2023/05/31 07:44:40;;;;;;;13.73;3.10;;;;;;;-144.73;57.30;54268.13;5088677;28;20016;-71
2023/05/31 07:47:05;;;;;;;14.40;3.67;;;;;;;-144.73;57.15;54206.56;5074570;28;20034;-71
2023/05/31 07:49:31;;;;;;;9.15;2.72;;;;;;;-144.73;57.53;54202.44;5090924;28;20036;-71
2023/05/31 07:51:56;;;;;;;18.23;3.03;;;;;;;-144.73;55.94;54268.13;5086281;28;20107;-71
2023/05/31 07:54:21;;;;;;;9.80;2.58;;;;;;;-144.73;53.69;54231.19;5080183;28;20026;-71
2023/05/31 07:56:47;;;;;;;12.25;2.60;;;;;;;-144.73;53.43;54261.97;5089564;28;20473;-72
2023/05/31 07:59:13;;;;;;;6.88;2.65;;;;;;;-144.73;52.24;54247.59;5091321;28;20024;-71
2023/05/31 08:01:39;;;;;;;6.95;2.58;;;;;;;-144.73;49.80;54243.50;5104853;28;20041;-71
2023/05/31 08:04:08;;;;;;;15.57;2.88;;;;;;;-144.73;52.40;54229.13;5083217;28;20042;-69
2023/05/31 08:06:34;;;;;;;10.98;3.20;;;;;;;-144.73;53.63;54200.41;5090595;28;20023;-71
2023/05/31 08:09:00;;;;;;;12.70;3.05;;;;;;;-144.73;52.42;54268.13;5089247;28;20173;-71
2023/05/31 08:11:27;;;;;;;13.73;2.83;;;;;;;-144.73;52.59;54243.50;5107752;28;20026;-71
2023/05/31 08:13:52;;;;;;;9.80;2.47;;;;;;;-144.73;53.24;54290.72;5070440;28;20449;-71
2023/05/31 08:16:18;;;;;;;9.55;2.45;;;;;;;-144.73;52.52;54218.88;5069395;28;20103;-70
2023/05/31 08:18:44;;;;;;;10.55;2.92;;;;;;;-144.73;50.89;54233.25;5088148;28;20070;-71
2023/05/31 08:21:10;;;;;;;12.50;2.70;;;;;;;-144.73;49.78;54198.34;5089547;28;20110;-71
2023/05/31 08:23:36;;;;;;;9.82;2.70;;;;;;;-144.73;48.57;54218.88;5071996;28;20028;-71
2023/05/31 08:26:01;;;;;;;10.13;2.72;;;;;;;-144.73;48.63;54181.94;5087652;28;20035;-70
2023/05/31 08:28:27;;;;;;;9.35;1.92;;;;;;;-144.73;47.72;54214.78;5076763;28;20043;-71
2023/05/31 08:30:52;;;;;;;6.00;2.20;;;;;;;-144.73;49.84;54202.44;5068951;28;20051;-70
2023/05/31 08:33:17;;;;;;;7.70;2.13;;;;;;;-144.73;50.78;54225.03;5082705;27;20055;-69
2023/05/31 08:35:43;;;;;;;9.52;2.20;;;;;;;-144.73;49.29;54206.56;5102758;28;20015;-70
2023/05/31 08:38:08;;;;;;;9.32;2.70;;;;;;;-144.73;47.57;54194.25;5095306;27;20107;-71
2023/05/31 08:40:34;;;;;;;7.47;2.50;;;;;;;-144.73;49.15;54227.09;5083421;28;20107;-70
2023/05/31 08:43:02;;;;;;;7.22;2.38;;;;;;;-144.73;47.15;54214.78;5068060;28;20032;-71
2023/05/31 08:45:28;;;;;;;7.50;1.85;;;;;;;-144.73;47.83;54231.19;5068543;28;20494;-69
2023/05/31 08:48:05;;;;;;;15.15;2.80;;;;;;;-144.73;48.51;54194.25;5076316;28;20032;-71
2023/05/31 08:50:32;;;;;;;9.45;3.03;;;;;;;-144.73;47.19;54218.88;5088195;28;20032;-70
2023/05/31 08:52:58;;;;;;;10.32;2.83;;;;;;;-144.73;48.38;54190.13;5088030;28;20047;-70
2023/05/31 08:55:23;;;;;;;10.90;2.88;;;;;;;-144.73;50.46;54218.88;5092451;28;20063;-71
2023/05/31 08:57:50;;;;;;;8.93;2.45;;;;;;;-144.73;50.92;54188.09;5085434;28;20142;-71
2023/05/31 09:00:16;;;;;;;9.55;2.38;;;;;;;-144.73;50.05;54214.78;5086498;28;20414;-69
2023/05/31 09:02:44;;;;;;;10.82;2.55;;;;;;;-144.73;49.85;54235.28;5087546;28;20070;-70
2023/05/31 09:05:11;;;;;;;15.27;2.58;;;;;;;-144.73;48.87;54169.63;5094962;28;20020;-71
2023/05/31 09:07:37;;;;;;;6.95;2.65;;;;;;;-144.73;49.99;54268.13;5086645;28;20032;-70
2023/05/31 09:10:05;;;;;;;5.88;2.58;;;;;;;-144.73;51.31;54245.56;5066423;28;20387;-70
2023/05/31 09:12:30;;;;;;;8.55;2.60;;;;;;;-144.73;50.89;54181.94;5083816;28;20054;-70
2023/05/31 09:14:56;;;;;;;12.07;2.53;;;;;;;-144.73;49.58;54206.56;5088777;28;20172;-73
2023/05/31 09:17:22;;;;;;;10.63;2.58;;;;;;;-144.73;49.36;54177.81;5091236;28;20114;-70
2023/05/31 09:19:52;;;;;;;12.82;2.90;;;;;;;-144.73;48.91;54194.25;5086810;28;20109;-71
2023/05/31 09:22:18;;;;;;;6.72;2.25;;;;;;;-144.73;48.86;54194.25;5085117;28;20027;-71
2023/05/31 09:24:57;;;;;;;10.65;2.80;;;;;;;-144.73;48.96;54198.34;5083931;28;20616;-71
2023/05/31 09:27:24;;;;;;;11.35;2.75;;;;;;;-144.73;48.77;54169.63;5078424;28;20016;-70
2023/05/31 09:29:53;;;;;;;9.82;2.55;;;;;;;-144.73;49.14;54245.56;5087050;28;20035;-71
2023/05/31 09:32:19;;;;;;;12.10;3.17;;;;;;;-144.73;48.52;54214.78;5082959;28;20058;-70
2023/05/31 09:34:46;;;;;;;14.82;2.85;;;;;;;-144.73;49.71;54169.63;5088665;28;20067;-70
2023/05/31 09:37:24;;;;;;;10.82;2.85;;;;;;;-144.73;47.95;54222.97;5087904;28;20075;-70
2023/05/31 09:39:57;;;;;;;14.18;2.97;;;;;;;-144.73;47.44;54218.88;5081145;28;20028;-70
2023/05/31 09:42:26;;;;;;;13.20;2.70;;;;;;;-144.73;46.83;54177.81;5085348;28;20024;-71
2023/05/31 09:44:52;;;;;;;12.23;2.65;;;;;;;-144.73;46.63;54198.34;5084788;28;20374;-71
2023/05/31 09:47:24;;;;;;;10.02;3.47;;;;;;;-144.73;46.93;54210.66;5084483;28;20119;-70
2023/05/31 09:49:52;;;;;;;18.23;3.35;;;;;;;-144.73;46.98;54227.09;5086533;28;20099;-71
2023/05/31 09:52:25;;;;;;;8.18;3.17;;;;;;;-144.73;46.21;54231.19;5084015;28;20031;-72
2023/05/31 09:54:50;;;;;;;11.93;2.72;;;;;;;-144.73;46.71;54173.72;5084856;28;20024;-70
2023/05/31 09:57:33;;;;;;;15.80;3.17;;;;;;;-144.73;46.85;54165.50;5085226;28;20030;-71
2023/05/31 09:59:59;;;;;;;8.93;2.97;;;;;;;-144.73;47.52;54220.94;5081346;28;20445;-71
2023/05/31 10:02:27;;;;;;;10.95;2.60;;;;;;;-144.73;50.04;54186.03;5084955;28;20023;-71
2023/05/31 10:04:54;;;;;;;10.35;3.08;;;;;;;-144.73;47.72;54198.34;5083892;28;20032;-71
2023/05/31 10:07:21;;;;;;;12.95;3.38;;;;;;;-144.73;46.56;54194.25;5084463;28;20035;-71
2023/05/31 10:09:49;;;;;;;16.20;3.47;;;;;;;-144.73;48.84;54220.94;5084013;28;20024;-73
2023/05/31 10:12:18;;;;;;;9.50;3.13;;;;;;;-144.73;47.88;54186.03;5084305;28;20085;-71
2023/05/31 10:14:53;;;;;;;10.18;2.63;;;;;;;-144.73;46.25;54220.94;5084079;28;20108;-71
2023/05/31 10:17:23;;;;;;;13.20;3.15;;;;;;;-144.73;44.87;54214.78;5084984;28;20024;-72
2023/05/31 10:19:56;;;;;;;22.45;3.42;;;;;;;-144.73;43.96;54206.56;5084198;28;20038;-71
2023/05/31 10:22:26;;;;;;;10.32;2.47;;;;;;;-144.73;42.14;54239.41;5080008;28;20479;-71
2023/05/31 10:25:00;;;;;;;10.77;2.45;;;;;;;-144.73;39.58;54192.19;5081810;28;20077;-72
2023/05/31 10:27:36;;;;;;;13.23;3.40;;;;;;;-144.73;39.43;54175.78;5101420;28;20024;-72
2023/05/31 10:30:04;;;;;;;14.98;3.10;;;;;;;-144.73;41.18;54210.66;5088391;28;20112;-71
2023/05/31 10:32:33;;;;;;;9.20;2.65;;;;;;;-144.73;40.95;54186.03;5083865;28;20107;-71
2023/05/31 10:35:00;;;;;;;12.18;2.95;;;;;;;-144.73;40.82;54181.94;5084568;28;20024;-71
2023/05/31 10:37:26;;;;;;;9.77;2.58;;;;;;;-144.73;39.38;54132.69;5087755;28;20024;-71
2023/05/31 10:39:53;;;;;;;11.13;2.97;;;;;;;-144.73;38.62;54183.97;5091110;27;20028;-72
2023/05/31 10:42:40;;;;;;;11.80;2.42;;;;;;;-144.73;37.83;54202.44;5084422;28;20042;-72
2023/05/31 10:45:15;;;;;;;9.23;2.88;;;;;;;-144.73;39.35;54186.03;5086041;28;20046;-72
2023/05/31 10:47:56;;;;;;;10.50;3.10;;;;;;;-144.73;38.12;54167.56;5085903;28;20101;-72
2023/05/31 10:50:22;;;;;;;8.88;2.97;;;;;;;-144.73;38.50;54165.50;5068068;28;20028;-71
2023/05/31 10:52:52;;;;;;;12.13;2.20;;;;;;;-144.73;38.73;54192.19;5084516;28;20031;-72
2023/05/31 10:55:19;;;;;;;7.35;2.47;;;;;;;-144.73;38.95;54190.13;5088766;28;20089;-71
2023/05/31 10:57:49;;;;;;;8.00;2.40;;;;;;;-144.73;39.43;54149.09;5088293;28;20028;-72
2023/05/31 11:00:19;;;;;;;10.98;2.53;;;;;;;-144.73;38.31;54210.66;5087774;28;20035;-72
2023/05/31 11:02:49;;;;;;;10.85;2.70;;;;;;;-144.73;40.46;54165.50;5088847;28;20027;-72
2023/05/31 11:05:26;;;;;;;16.35;3.25;;;;;;;-144.73;42.35;54198.34;5088975;28;20103;-72